Millport, Pennsylvania
Current Conditions -  °F | °C
As of 1:56 PM on Monday 22 Dec 2014 (Local Time) from KELZ Reporting Station
Clear Clear  
Wind Chill: 27°   Ceiling: Unl
Heat Index: 35°   Visibility: 10mi
Dew Point: 24°   Wind: 10mph
Humidity: 64%   Direction: 150°SSE
Pressure: 30.06"   Gusts: NA
Location:  41.9376°N, 78.1608°W
Report Text: KELZ 221856Z AUTO 15009KT 10SM CLR 02/M04 A3006 RMK AO2 SLP205 T00171044
Loading
Personal Weather Stations






























Interactive Weather Map New forecast layout! Learn more

10-Day Weather Forecast

Advertisements
Track Severe Weather on mobile